sensor_id;sensor_type;location;lat;lon;timestamp;temperature;humidity
326;DHT22;150;52.352;14.058;2024-03-07T00:00:46;6.60;47.40
326;DHT22;150;52.352;14.058;2024-03-07T00:03:14;6.70;47.60
326;DHT22;150;52.352;14.058;2024-03-07T00:05:42;6.70;47.20
326;DHT22;150;52.352;14.058;2024-03-07T00:08:08;6.70;47.10
326;DHT22;150;52.352;14.058;2024-03-07T00:10:36;6.60;46.80
326;DHT22;150;52.352;14.058;2024-03-07T00:13:03;6.50;46.90
326;DHT22;150;52.352;14.058;2024-03-07T00:15:30;6.40;47.10
326;DHT22;150;52.352;14.058;2024-03-07T00:17:57;6.30;47.40
326;DHT22;150;52.352;14.058;2024-03-07T00:20:25;6.30;47.80
326;DHT22;150;52.352;14.058;2024-03-07T00:22:52;6.10;47.60
326;DHT22;150;52.352;14.058;2024-03-07T00:25:18;6.10;48.00
326;DHT22;150;52.352;14.058;2024-03-07T00:27:46;6.00;48.50
326;DHT22;150;52.352;14.058;2024-03-07T00:30:12;5.90;48.80
326;DHT22;150;52.352;14.058;2024-03-07T00:32:43;5.90;48.90
326;DHT22;150;52.352;14.058;2024-03-07T00:35:10;5.80;48.70
326;DHT22;150;52.352;14.058;2024-03-07T00:37:38;5.80;48.80
326;DHT22;150;52.352;14.058;2024-03-07T00:40:06;5.80;49.10
326;DHT22;150;52.352;14.058;2024-03-07T00:42:33;5.70;48.70
326;DHT22;150;52.352;14.058;2024-03-07T00:45:00;5.70;48.40
326;DHT22;150;52.352;14.058;2024-03-07T00:47:29;5.60;49.10
326;DHT22;150;52.352;14.058;2024-03-07T00:49:56;5.60;48.80
326;DHT22;150;52.352;14.058;2024-03-07T00:52:23;5.60;48.80
326;DHT22;150;52.352;14.058;2024-03-07T00:54:52;5.50;48.70
326;DHT22;150;52.352;14.058;2024-03-07T00:57:18;5.50;49.00
326;DHT22;150;52.352;14.058;2024-03-07T00:59:45;5.40;49.50
326;DHT22;150;52.352;14.058;2024-03-07T01:02:13;5.40;50.20
326;DHT22;150;52.352;14.058;2024-03-07T01:04:42;5.40;50.10
326;DHT22;150;52.352;14.058;2024-03-07T01:07:09;5.50;49.80
326;DHT22;150;52.352;14.058;2024-03-07T01:09:35;5.40;49.40
326;DHT22;150;52.352;14.058;2024-03-07T01:12:04;5.40;49.30
326;DHT22;150;52.352;14.058;2024-03-07T01:14:31;5.40;48.90
326;DHT22;150;52.352;14.058;2024-03-07T01:16:58;5.40;49.30
326;DHT22;150;52.352;14.058;2024-03-07T01:19:24;5.40;49.00
326;DHT22;150;52.352;14.058;2024-03-07T01:21:51;5.30;49.50
326;DHT22;150;52.352;14.058;2024-03-07T01:24:18;5.20;49.70
326;DHT22;150;52.352;14.058;2024-03-07T01:26:45;5.20;49.80
326;DHT22;150;52.352;14.058;2024-03-07T01:29:13;5.20;50.10
326;DHT22;150;52.352;14.058;2024-03-07T01:31:40;5.10;50.10
326;DHT22;150;52.352;14.058;2024-03-07T01:34:08;5.00;50.00
326;DHT22;150;52.352;14.058;2024-03-07T01:36:35;5.00;50.50
326;DHT22;150;52.352;14.058;2024-03-07T01:39:02;5.00;50.60
326;DHT22;150;52.352;14.058;2024-03-07T01:41:29;5.00;50.20
326;DHT22;150;52.352;14.058;2024-03-07T01:43:55;5.00;49.30
326;DHT22;150;52.352;14.058;2024-03-07T01:46:23;5.00;49.80
326;DHT22;150;52.352;14.058;2024-03-07T01:48:50;5.00;50.00
326;DHT22;150;52.352;14.058;2024-03-07T01:51:19;4.90;48.60
326;DHT22;150;52.352;14.058;2024-03-07T01:53:47;4.90;48.30
326;DHT22;150;52.352;14.058;2024-03-07T01:56:13;4.80;48.00
326;DHT22;150;52.352;14.058;2024-03-07T01:58:41;4.80;47.30
326;DHT22;150;52.352;14.058;2024-03-07T02:01:09;4.70;47.30
326;DHT22;150;52.352;14.058;2024-03-07T02:03:37;4.60;46.70
326;DHT22;150;52.352;14.058;2024-03-07T02:06:03;4.60;47.40
326;DHT22;150;52.352;14.058;2024-03-07T02:08:30;4.60;47.60
326;DHT22;150;52.352;14.058;2024-03-07T02:10:57;4.60;47.60
326;DHT22;150;52.352;14.058;2024-03-07T02:13:24;4.50;46.90
326;DHT22;150;52.352;14.058;2024-03-07T02:15:54;4.40;47.10
326;DHT22;150;52.352;14.058;2024-03-07T02:18:21;4.40;47.60
326;DHT22;150;52.352;14.058;2024-03-07T02:20:49;4.30;47.80
326;DHT22;150;52.352;14.058;2024-03-07T02:23:15;4.40;48.10
326;DHT22;150;52.352;14.058;2024-03-07T02:25:42;4.40;47.80
326;DHT22;150;52.352;14.058;2024-03-07T02:28:08;4.40;47.30
326;DHT22;150;52.352;14.058;2024-03-07T02:30:35;4.30;47.20
326;DHT22;150;52.352;14.058;2024-03-07T02:33:02;4.30;47.40
326;DHT22;150;52.352;14.058;2024-03-07T02:35:32;4.30;47.40
326;DHT22;150;52.352;14.058;2024-03-07T02:38:02;4.30;47.20
326;DHT22;150;52.352;14.058;2024-03-07T02:40:28;4.30;47.00
326;DHT22;150;52.352;14.058;2024-03-07T02:42:55;4.20;47.40
326;DHT22;150;52.352;14.058;2024-03-07T02:45:22;4.30;47.80
326;DHT22;150;52.352;14.058;2024-03-07T02:47:48;4.30;47.60
326;DHT22;150;52.352;14.058;2024-03-07T02:50:15;4.30;46.70
326;DHT22;150;52.352;14.058;2024-03-07T02:52:42;4.30;46.10
326;DHT22;150;52.352;14.058;2024-03-07T02:55:09;4.20;45.90
326;DHT22;150;52.352;14.058;2024-03-07T02:57:36;4.20;46.10
326;DHT22;150;52.352;14.058;2024-03-07T03:00:04;4.20;46.00
326;DHT22;150;52.352;14.058;2024-03-07T03:02:39;4.20;46.00
326;DHT22;150;52.352;14.058;2024-03-07T03:05:06;4.20;46.10
326;DHT22;150;52.352;14.058;2024-03-07T03:07:34;4.20;46.00
326;DHT22;150;52.352;14.058;2024-03-07T03:10:01;4.20;45.30
326;DHT22;150;52.352;14.058;2024-03-07T03:12:34;4.10;44.20
326;DHT22;150;52.352;14.058;2024-03-07T03:15:02;4.10;43.70
326;DHT22;150;52.352;14.058;2024-03-07T03:17:30;4.10;44.00
326;DHT22;150;52.352;14.058;2024-03-07T03:19:57;4.00;43.70
326;DHT22;150;52.352;14.058;2024-03-07T03:22:24;4.00;43.60
326;DHT22;150;52.352;14.058;2024-03-07T03:24:51;3.90;43.40
326;DHT22;150;52.352;14.058;2024-03-07T03:27:21;3.80;43.70
326;DHT22;150;52.352;14.058;2024-03-07T03:29:48;3.70;43.80
326;DHT22;150;52.352;14.058;2024-03-07T03:32:16;3.70;44.60
326;DHT22;150;52.352;14.058;2024-03-07T03:34:42;3.70;44.60
326;DHT22;150;52.352;14.058;2024-03-07T03:37:09;3.60;43.90
326;DHT22;150;52.352;14.058;2024-03-07T03:39:36;3.60;43.80
326;DHT22;150;52.352;14.058;2024-03-07T03:42:03;3.50;42.40
326;DHT22;150;52.352;14.058;2024-03-07T03:44:32;3.30;43.10
326;DHT22;150;52.352;14.058;2024-03-07T03:47:00;3.20;43.90
326;DHT22;150;52.352;14.058;2024-03-07T03:49:29;3.10;44.60
326;DHT22;150;52.352;14.058;2024-03-07T03:51:56;3.10;44.40
326;DHT22;150;52.352;14.058;2024-03-07T03:54:23;3.00;44.70
326;DHT22;150;52.352;14.058;2024-03-07T03:56:49;3.00;44.70
326;DHT22;150;52.352;14.058;2024-03-07T03:59:16;3.00;45.10
326;DHT22;150;52.352;14.058;2024-03-07T04:01:42;3.00;44.60
326;DHT22;150;52.352;14.058;2024-03-07T04:04:12;3.00;44.40
326;DHT22;150;52.352;14.058;2024-03-07T04:06:38;3.00;44.50
326;DHT22;150;52.352;14.058;2024-03-07T04:09:05;3.00;44.50
326;DHT22;150;52.352;14.058;2024-03-07T04:11:32;3.00;44.30
326;DHT22;150;52.352;14.058;2024-03-07T04:13:59;3.00;43.50
326;DHT22;150;52.352;14.058;2024-03-07T04:16:26;3.00;42.90
326;DHT22;150;52.352;14.058;2024-03-07T04:18:53;2.90;42.40
326;DHT22;150;52.352;14.058;2024-03-07T04:21:21;2.90;42.40
326;DHT22;150;52.352;14.058;2024-03-07T04:23:48;2.90;42.70
326;DHT22;150;52.352;14.058;2024-03-07T04:26:14;2.90;42.20
326;DHT22;150;52.352;14.058;2024-03-07T04:28:41;2.80;42.00
326;DHT22;150;52.352;14.058;2024-03-07T04:31:08;2.80;42.70
326;DHT22;150;52.352;14.058;2024-03-07T04:33:35;2.80;42.70
326;DHT22;150;52.352;14.058;2024-03-07T04:36:01;2.80;42.50
326;DHT22;150;52.352;14.058;2024-03-07T04:38:29;2.70;41.60
326;DHT22;150;52.352;14.058;2024-03-07T04:40:56;2.70;41.80
326;DHT22;150;52.352;14.058;2024-03-07T04:43:22;2.60;41.80
326;DHT22;150;52.352;14.058;2024-03-07T04:45:51;2.60;42.10
326;DHT22;150;52.352;14.058;2024-03-07T04:48:18;2.60;42.50
326;DHT22;150;52.352;14.058;2024-03-07T04:50:44;2.50;42.30
326;DHT22;150;52.352;14.058;2024-03-07T04:53:11;2.50;42.00
326;DHT22;150;52.352;14.058;2024-03-07T04:55:39;2.50;42.50
326;DHT22;150;52.352;14.058;2024-03-07T04:58:06;2.50;42.70
326;DHT22;150;52.352;14.058;2024-03-07T05:00:32;2.50;41.90
326;DHT22;150;52.352;14.058;2024-03-07T05:02:59;2.40;41.30
326;DHT22;150;52.352;14.058;2024-03-07T05:05:25;2.30;41.40
326;DHT22;150;52.352;14.058;2024-03-07T05:07:52;2.30;42.00
326;DHT22;150;52.352;14.058;2024-03-07T05:10:19;2.30;42.40
326;DHT22;150;52.352;14.058;2024-03-07T05:12:47;2.30;42.40
326;DHT22;150;52.352;14.058;2024-03-07T05:15:13;2.30;42.40
326;DHT22;150;52.352;14.058;2024-03-07T05:17:40;2.30;42.10
326;DHT22;150;52.352;14.058;2024-03-07T05:20:09;2.30;41.70
326;DHT22;150;52.352;14.058;2024-03-07T05:22:36;2.30;41.90
326;DHT22;150;52.352;14.058;2024-03-07T05:25:06;2.30;41.60
326;DHT22;150;52.352;14.058;2024-03-07T05:30:07;2.30;41.00
326;DHT22;150;52.352;14.058;2024-03-07T05:32:37;2.30;40.50
326;DHT22;150;52.352;14.058;2024-03-07T05:35:04;2.30;40.90
326;DHT22;150;52.352;14.058;2024-03-07T05:37:31;2.30;40.50
326;DHT22;150;52.352;14.058;2024-03-07T05:39:58;2.30;40.50
326;DHT22;150;52.352;14.058;2024-03-07T05:42:25;2.20;40.20
326;DHT22;150;52.352;14.058;2024-03-07T05:44:51;2.20;39.70
326;DHT22;150;52.352;14.058;2024-03-07T05:47:20;2.20;39.80
326;DHT22;150;52.352;14.058;2024-03-07T05:49:47;2.20;39.30
326;DHT22;150;52.352;14.058;2024-03-07T05:52:14;2.20;39.50
326;DHT22;150;52.352;14.058;2024-03-07T05:54:40;2.10;39.20
326;DHT22;150;52.352;14.058;2024-03-07T05:57:09;2.10;39.20
326;DHT22;150;52.352;14.058;2024-03-07T05:59:37;2.10;39.10
326;DHT22;150;52.352;14.058;2024-03-07T06:02:04;2.10;39.70
326;DHT22;150;52.352;14.058;2024-03-07T06:04:32;2.10;40.00
326;DHT22;150;52.352;14.058;2024-03-07T06:06:59;2.10;39.10
326;DHT22;150;52.352;14.058;2024-03-07T06:09:26;2.10;39.10
326;DHT22;150;52.352;14.058;2024-03-07T06:11:52;2.00;39.10
326;DHT22;150;52.352;14.058;2024-03-07T06:14:19;2.00;39.00
326;DHT22;150;52.352;14.058;2024-03-07T06:16:45;2.00;39.00
326;DHT22;150;52.352;14.058;2024-03-07T06:19:12;2.10;39.10
326;DHT22;150;52.352;14.058;2024-03-07T06:21:40;2.10;39.10
326;DHT22;150;52.352;14.058;2024-03-07T06:24:07;2.10;39.10
326;DHT22;150;52.352;14.058;2024-03-07T06:26:36;2.10;39.10
326;DHT22;150;52.352;14.058;2024-03-07T06:29:11;2.20;39.30
326;DHT22;150;52.352;14.058;2024-03-07T06:31:37;2.20;39.30
326;DHT22;150;52.352;14.058;2024-03-07T06:34:04;2.20;38.50
326;DHT22;150;52.352;14.058;2024-03-07T06:36:31;2.20;39.20
326;DHT22;150;52.352;14.058;2024-03-07T06:38:59;2.20;38.50
326;DHT22;150;52.352;14.058;2024-03-07T06:41:26;2.20;39.20
326;DHT22;150;52.352;14.058;2024-03-07T06:43:52;2.30;38.70
326;DHT22;150;52.352;14.058;2024-03-07T06:46:20;2.30;38.90
326;DHT22;150;52.352;14.058;2024-03-07T06:48:47;2.40;37.90
326;DHT22;150;52.352;14.058;2024-03-07T06:51:14;2.50;38.00
326;DHT22;150;52.352;14.058;2024-03-07T06:53:43;2.50;37.40
326;DHT22;150;52.352;14.058;2024-03-07T06:56:12;2.60;38.10
326;DHT22;150;52.352;14.058;2024-03-07T06:58:39;2.60;37.30
326;DHT22;150;52.352;14.058;2024-03-07T07:01:05;2.50;36.50
326;DHT22;150;52.352;14.058;2024-03-07T07:03:34;2.50;36.60
326;DHT22;150;52.352;14.058;2024-03-07T07:06:01;2.60;36.80
326;DHT22;150;52.352;14.058;2024-03-07T07:08:28;2.60;36.50
326;DHT22;150;52.352;14.058;2024-03-07T07:10:55;2.70;37.30
326;DHT22;150;52.352;14.058;2024-03-07T07:13:22;2.70;35.90
326;DHT22;150;52.352;14.058;2024-03-07T07:15:49;2.60;35.50
326;DHT22;150;52.352;14.058;2024-03-07T07:18:16;2.70;36.10
326;DHT22;150;52.352;14.058;2024-03-07T07:20:43;2.70;35.20
326;DHT22;150;52.352;14.058;2024-03-07T07:23:09;2.60;35.20
326;DHT22;150;52.352;14.058;2024-03-07T07:25:38;2.70;36.00
326;DHT22;150;52.352;14.058;2024-03-07T07:28:06;2.80;36.40
326;DHT22;150;52.352;14.058;2024-03-07T07:30:37;2.80;35.20
326;DHT22;150;52.352;14.058;2024-03-07T07:33:04;2.80;35.80
326;DHT22;150;52.352;14.058;2024-03-07T07:35:30;3.00;35.50
326;DHT22;150;52.352;14.058;2024-03-07T07:37:58;3.10;34.00
326;DHT22;150;52.352;14.058;2024-03-07T07:40:25;3.10;33.90
326;DHT22;150;52.352;14.058;2024-03-07T07:42:53;3.20;34.30
326;DHT22;150;52.352;14.058;2024-03-07T07:45:21;3.30;33.20
326;DHT22;150;52.352;14.058;2024-03-07T07:47:50;3.40;34.10
326;DHT22;150;52.352;14.058;2024-03-07T07:50:18;3.50;33.20
326;DHT22;150;52.352;14.058;2024-03-07T07:52:46;3.50;32.70
326;DHT22;150;52.352;14.058;2024-03-07T07:55:14;3.60;31.70
326;DHT22;150;52.352;14.058;2024-03-07T07:57:44;3.60;31.40
326;DHT22;150;52.352;14.058;2024-03-07T08:00:13;3.60;31.20
326;DHT22;150;52.352;14.058;2024-03-07T08:02:52;3.70;30.80
326;DHT22;150;52.352;14.058;2024-03-07T08:05:20;3.80;30.20
326;DHT22;150;52.352;14.058;2024-03-07T08:07:48;3.90;30.40
326;DHT22;150;52.352;14.058;2024-03-07T08:10:17;4.00;30.40
326;DHT22;150;52.352;14.058;2024-03-07T08:12:43;4.00;30.10
326;DHT22;150;52.352;14.058;2024-03-07T08:15:12;4.10;29.70
326;DHT22;150;52.352;14.058;2024-03-07T08:17:40;4.20;30.20
326;DHT22;150;52.352;14.058;2024-03-07T08:20:10;4.20;29.50
326;DHT22;150;52.352;14.058;2024-03-07T08:22:37;4.10;29.60
326;DHT22;150;52.352;14.058;2024-03-07T08:25:06;4.30;29.50
326;DHT22;150;52.352;14.058;2024-03-07T08:27:35;4.30;28.50
326;DHT22;150;52.352;14.058;2024-03-07T08:30:02;4.30;28.80
326;DHT22;150;52.352;14.058;2024-03-07T08:32:31;4.40;28.90
326;DHT22;150;52.352;14.058;2024-03-07T08:34:58;4.40;28.80
326;DHT22;150;52.352;14.058;2024-03-07T08:37:26;4.40;28.80
326;DHT22;150;52.352;14.058;2024-03-07T08:39:53;4.50;28.90
326;DHT22;150;52.352;14.058;2024-03-07T08:42:19;4.50;29.00
326;DHT22;150;52.352;14.058;2024-03-07T08:44:46;4.70;28.40
326;DHT22;150;52.352;14.058;2024-03-07T08:47:12;5.00;28.40
326;DHT22;150;52.352;14.058;2024-03-07T08:49:39;5.10;26.80
326;DHT22;150;52.352;14.058;2024-03-07T08:52:06;5.00;26.60
326;DHT22;150;52.352;14.058;2024-03-07T08:54:35;5.10;27.30
326;DHT22;150;52.352;14.058;2024-03-07T08:57:02;5.20;27.00
326;DHT22;150;52.352;14.058;2024-03-07T08:59:30;5.40;26.30
326;DHT22;150;52.352;14.058;2024-03-07T09:01:58;5.50;25.40
326;DHT22;150;52.352;14.058;2024-03-07T09:04:27;5.60;25.50
326;DHT22;150;52.352;14.058;2024-03-07T09:06:54;5.80;25.40
326;DHT22;150;52.352;14.058;2024-03-07T09:09:20;5.90;24.90
326;DHT22;150;52.352;14.058;2024-03-07T09:11:48;6.00;25.70
326;DHT22;150;52.352;14.058;2024-03-07T09:14:15;6.00;24.30
326;DHT22;150;52.352;14.058;2024-03-07T09:16:42;6.10;25.20
326;DHT22;150;52.352;14.058;2024-03-07T09:19:09;6.30;24.30
326;DHT22;150;52.352;14.058;2024-03-07T09:21:39;6.30;23.80
326;DHT22;150;52.352;14.058;2024-03-07T09:24:06;6.20;23.70
326;DHT22;150;52.352;14.058;2024-03-07T09:26:33;6.30;24.50
326;DHT22;150;52.352;14.058;2024-03-07T09:29:01;6.30;23.10
326;DHT22;150;52.352;14.058;2024-03-07T09:31:31;6.30;21.20
326;DHT22;150;52.352;14.058;2024-03-07T09:33:58;6.30;21.80
326;DHT22;150;52.352;14.058;2024-03-07T09:36:24;6.50;21.30
326;DHT22;150;52.352;14.058;2024-03-07T09:38:51;6.50;21.10
326;DHT22;150;52.352;14.058;2024-03-07T09:41:18;6.50;22.00
326;DHT22;150;52.352;14.058;2024-03-07T09:43:46;6.60;21.60
326;DHT22;150;52.352;14.058;2024-03-07T09:46:15;6.50;20.60
326;DHT22;150;52.352;14.058;2024-03-07T09:48:43;6.60;21.60
326;DHT22;150;52.352;14.058;2024-03-07T09:51:10;6.80;21.70
326;DHT22;150;52.352;14.058;2024-03-07T09:53:39;6.80;21.50
326;DHT22;150;52.352;14.058;2024-03-07T09:56:06;6.80;20.70
326;DHT22;150;52.352;14.058;2024-03-07T09:58:33;6.90;21.30
326;DHT22;150;52.352;14.058;2024-03-07T10:01:02;7.00;20.60
326;DHT22;150;52.352;14.058;2024-03-07T10:03:34;7.10;19.40
326;DHT22;150;52.352;14.058;2024-03-07T10:06:01;7.10;17.60
326;DHT22;150;52.352;14.058;2024-03-07T10:08:29;6.90;16.90
326;DHT22;150;52.352;14.058;2024-03-07T10:10:56;6.80;17.00
326;DHT22;150;52.352;14.058;2024-03-07T10:13:23;6.80;17.30
326;DHT22;150;52.352;14.058;2024-03-07T10:15:51;6.80;17.00
326;DHT22;150;52.352;14.058;2024-03-07T10:18:18;6.80;17.30
326;DHT22;150;52.352;14.058;2024-03-07T10:20:49;6.80;17.50
326;DHT22;150;52.352;14.058;2024-03-07T10:23:18;6.90;17.90
326;DHT22;150;52.352;14.058;2024-03-07T10:25:46;6.80;17.10
326;DHT22;150;52.352;14.058;2024-03-07T10:28:13;6.80;16.80
326;DHT22;150;52.352;14.058;2024-03-07T10:30:40;6.90;18.80
326;DHT22;150;52.352;14.058;2024-03-07T10:33:07;6.90;16.70
326;DHT22;150;52.352;14.058;2024-03-07T10:35:33;6.90;16.70
326;DHT22;150;52.352;14.058;2024-03-07T10:38:01;7.00;16.20
326;DHT22;150;52.352;14.058;2024-03-07T10:40:32;7.10;15.80
326;DHT22;150;52.352;14.058;2024-03-07T10:43:01;7.20;16.90
326;DHT22;150;52.352;14.058;2024-03-07T10:45:39;7.30;17.10
326;DHT22;150;52.352;14.058;2024-03-07T10:48:11;7.30;16.90
326;DHT22;150;52.352;14.058;2024-03-07T10:50:52;7.30;16.60
326;DHT22;150;52.352;14.058;2024-03-07T10:53:27;7.20;17.20
326;DHT22;150;52.352;14.058;2024-03-07T10:56:17;7.00;17.30
326;DHT22;150;52.352;14.058;2024-03-07T10:58:57;6.90;17.40
326;DHT22;150;52.352;14.058;2024-03-07T11:01:26;6.60;16.70
326;DHT22;150;52.352;14.058;2024-03-07T11:03:56;6.50;15.70
326;DHT22;150;52.352;14.058;2024-03-07T11:06:23;6.60;16.90
326;DHT22;150;52.352;14.058;2024-03-07T11:08:52;6.70;16.40
326;DHT22;150;52.352;14.058;2024-03-07T11:11:20;6.80;16.90
326;DHT22;150;52.352;14.058;2024-03-07T11:13:48;6.90;16.50
326;DHT22;150;52.352;14.058;2024-03-07T11:16:16;7.00;15.00
326;DHT22;150;52.352;14.058;2024-03-07T11:21:43;6.60;16.10
326;DHT22;150;52.352;14.058;2024-03-07T11:24:22;6.70;16.60
326;DHT22;150;52.352;14.058;2024-03-07T11:26:51;6.80;17.00
326;DHT22;150;52.352;14.058;2024-03-07T11:29:39;6.90;16.80
326;DHT22;150;52.352;14.058;2024-03-07T11:32:08;6.90;16.30
326;DHT22;150;52.352;14.058;2024-03-07T11:34:38;7.00;16.20
326;DHT22;150;52.352;14.058;2024-03-07T11:37:06;7.00;15.40
326;DHT22;150;52.352;14.058;2024-03-07T11:39:44;7.20;15.00
326;DHT22;150;52.352;14.058;2024-03-07T11:42:26;7.40;15.10
326;DHT22;150;52.352;14.058;2024-03-07T11:44:54;7.40;15.00
326;DHT22;150;52.352;14.058;2024-03-07T11:47:22;7.30;13.00
326;DHT22;150;52.352;14.058;2024-03-07T11:49:50;7.10;12.80
326;DHT22;150;52.352;14.058;2024-03-07T11:52:18;7.10;12.60
326;DHT22;150;52.352;14.058;2024-03-07T11:54:46;7.20;13.20
326;DHT22;150;52.352;14.058;2024-03-07T11:57:13;7.20;12.80
326;DHT22;150;52.352;14.058;2024-03-07T11:59:41;7.20;12.70
326;DHT22;150;52.352;14.058;2024-03-07T12:02:11;7.40;13.20
326;DHT22;150;52.352;14.058;2024-03-07T12:04:39;7.40;12.90
326;DHT22;150;52.352;14.058;2024-03-07T12:07:05;7.30;12.70
326;DHT22;150;52.352;14.058;2024-03-07T12:09:36;7.40;12.60
326;DHT22;150;52.352;14.058;2024-03-07T12:12:05;7.60;12.30
326;DHT22;150;52.352;14.058;2024-03-07T12:14:32;7.40;12.80
326;DHT22;150;52.352;14.058;2024-03-07T12:16:59;7.30;13.30
326;DHT22;150;52.352;14.058;2024-03-07T12:19:26;7.30;13.50
326;DHT22;150;52.352;14.058;2024-03-07T12:21:56;7.30;12.90
326;DHT22;150;52.352;14.058;2024-03-07T12:24:23;7.20;13.20
326;DHT22;150;52.352;14.058;2024-03-07T12:26:49;7.10;13.10
326;DHT22;150;52.352;14.058;2024-03-07T12:29:17;7.00;13.40
326;DHT22;150;52.352;14.058;2024-03-07T12:31:45;7.10;13.20
326;DHT22;150;52.352;14.058;2024-03-07T12:34:12;7.10;13.30
326;DHT22;150;52.352;14.058;2024-03-07T12:36:38;7.20;12.60
326;DHT22;150;52.352;14.058;2024-03-07T12:39:21;7.30;13.10
326;DHT22;150;52.352;14.058;2024-03-07T12:41:51;7.50;12.60
326;DHT22;150;52.352;14.058;2024-03-07T12:44:20;7.40;12.60
326;DHT22;150;52.352;14.058;2024-03-07T12:46:47;7.40;12.90
326;DHT22;150;52.352;14.058;2024-03-07T12:49:14;7.40;13.30
326;DHT22;150;52.352;14.058;2024-03-07T12:51:41;7.40;13.20
326;DHT22;150;52.352;14.058;2024-03-07T12:54:08;7.40;13.30
326;DHT22;150;52.352;14.058;2024-03-07T12:56:35;7.40;13.10
326;DHT22;150;52.352;14.058;2024-03-07T12:59:02;7.50;13.40
326;DHT22;150;52.352;14.058;2024-03-07T13:01:31;7.60;12.00
326;DHT22;150;52.352;14.058;2024-03-07T13:03:58;7.80;12.70
326;DHT22;150;52.352;14.058;2024-03-07T13:06:25;7.90;12.30
326;DHT22;150;52.352;14.058;2024-03-07T13:08:55;7.80;11.30
326;DHT22;150;52.352;14.058;2024-03-07T13:11:23;7.60;11.40
326;DHT22;150;52.352;14.058;2024-03-07T13:13:52;7.70;11.70
326;DHT22;150;52.352;14.058;2024-03-07T13:16:19;7.70;11.20
326;DHT22;150;52.352;14.058;2024-03-07T13:18:47;7.80;12.00
326;DHT22;150;52.352;14.058;2024-03-07T13:21:13;7.90;10.90
326;DHT22;150;52.352;14.058;2024-03-07T13:23:43;7.80;11.20
326;DHT22;150;52.352;14.058;2024-03-07T13:26:10;7.70;11.20
326;DHT22;150;52.352;14.058;2024-03-07T13:28:42;7.70;10.60
326;DHT22;150;52.352;14.058;2024-03-07T13:31:09;7.40;10.60
326;DHT22;150;52.352;14.058;2024-03-07T13:33:37;7.40;11.00
326;DHT22;150;52.352;14.058;2024-03-07T13:36:06;7.50;11.30
326;DHT22;150;52.352;14.058;2024-03-07T13:38:33;7.50;11.00
326;DHT22;150;52.352;14.058;2024-03-07T13:41:00;7.50;11.20
326;DHT22;150;52.352;14.058;2024-03-07T13:43:29;7.60;10.40
326;DHT22;150;52.352;14.058;2024-03-07T13:45:55;7.60;10.20
326;DHT22;150;52.352;14.058;2024-03-07T13:48:22;7.60;12.40
326;DHT22;150;52.352;14.058;2024-03-07T13:50:49;7.30;13.10
326;DHT22;150;52.352;14.058;2024-03-07T13:53:19;7.40;14.30
326;DHT22;150;52.352;14.058;2024-03-07T13:56:16;7.50;13.80
326;DHT22;150;52.352;14.058;2024-03-07T13:59:04;7.50;14.20
326;DHT22;150;52.352;14.058;2024-03-07T14:01:41;7.50;13.60
326;DHT22;150;52.352;14.058;2024-03-07T14:05:10;7.50;13.60
326;DHT22;150;52.352;14.058;2024-03-07T14:07:50;7.50;13.70
326;DHT22;150;52.352;14.058;2024-03-07T14:10:44;7.40;13.30
326;DHT22;150;52.352;14.058;2024-03-07T14:13:34;7.20;13.90
326;DHT22;150;52.352;14.058;2024-03-07T14:16:21;7.20;13.80
326;DHT22;150;52.352;14.058;2024-03-07T14:19:31;7.10;13.80
326;DHT22;150;52.352;14.058;2024-03-07T14:22:33;7.00;14.50
326;DHT22;150;52.352;14.058;2024-03-07T14:25:28;7.10;14.50
326;DHT22;150;52.352;14.058;2024-03-07T14:28:15;7.10;14.90
326;DHT22;150;52.352;14.058;2024-03-07T14:30:50;7.10;14.90
326;DHT22;150;52.352;14.058;2024-03-07T14:33:20;7.10;14.90
326;DHT22;150;52.352;14.058;2024-03-07T14:36:05;7.00;14.20
326;DHT22;150;52.352;14.058;2024-03-07T14:38:48;6.90;14.80
326;DHT22;150;52.352;14.058;2024-03-07T14:41:16;7.00;14.90
326;DHT22;150;52.352;14.058;2024-03-07T14:43:45;7.10;14.90
326;DHT22;150;52.352;14.058;2024-03-07T14:46:14;7.10;14.30
326;DHT22;150;52.352;14.058;2024-03-07T14:48:41;7.10;14.10
326;DHT22;150;52.352;14.058;2024-03-07T14:51:09;7.10;14.10
326;DHT22;150;52.352;14.058;2024-03-07T14:53:39;7.10;14.10
326;DHT22;150;52.352;14.058;2024-03-07T14:56:07;7.10;14.00
326;DHT22;150;52.352;14.058;2024-03-07T14:58:34;7.10;14.00
326;DHT22;150;52.352;14.058;2024-03-07T15:01:02;7.10;13.90
326;DHT22;150;52.352;14.058;2024-03-07T15:03:29;7.10;13.80
326;DHT22;150;52.352;14.058;2024-03-07T15:05:55;7.10;13.80
326;DHT22;150;52.352;14.058;2024-03-07T15:08:26;7.10;13.60
326;DHT22;150;52.352;14.058;2024-03-07T15:10:58;7.00;13.80
326;DHT22;150;52.352;14.058;2024-03-07T15:13:29;7.00;13.90
326;DHT22;150;52.352;14.058;2024-03-07T15:15:55;7.00;13.70
326;DHT22;150;52.352;14.058;2024-03-07T15:18:25;7.10;13.80
326;DHT22;150;52.352;14.058;2024-03-07T15:20:53;7.10;13.80
326;DHT22;150;52.352;14.058;2024-03-07T15:23:19;7.10;13.70
326;DHT22;150;52.352;14.058;2024-03-07T15:25:47;7.10;13.80
326;DHT22;150;52.352;14.058;2024-03-07T15:28:14;7.10;13.80
326;DHT22;150;52.352;14.058;2024-03-07T15:30:41;7.20;13.30
326;DHT22;150;52.352;14.058;2024-03-07T15:33:08;7.20;13.60
326;DHT22;150;52.352;14.058;2024-03-07T15:35:36;7.10;13.30
326;DHT22;150;52.352;14.058;2024-03-07T15:38:03;7.00;13.30
326;DHT22;150;52.352;14.058;2024-03-07T15:40:31;7.00;13.10
326;DHT22;150;52.352;14.058;2024-03-07T15:42:59;6.90;13.70
326;DHT22;150;52.352;14.058;2024-03-07T15:45:27;6.80;14.10
326;DHT22;150;52.352;14.058;2024-03-07T15:47:55;6.90;13.90
326;DHT22;150;52.352;14.058;2024-03-07T15:50:24;6.90;14.20
326;DHT22;150;52.352;14.058;2024-03-07T15:52:57;6.90;14.70
326;DHT22;150;52.352;14.058;2024-03-07T15:55:24;6.90;14.00
326;DHT22;150;52.352;14.058;2024-03-07T15:57:52;6.90;14.40
326;DHT22;150;52.352;14.058;2024-03-07T16:00:20;6.90;14.40
326;DHT22;150;52.352;14.058;2024-03-07T16:02:52;6.80;14.70
326;DHT22;150;52.352;14.058;2024-03-07T16:05:19;6.70;14.70
326;DHT22;150;52.352;14.058;2024-03-07T16:07:48;6.70;14.70
326;DHT22;150;52.352;14.058;2024-03-07T16:10:16;6.70;14.40
326;DHT22;150;52.352;14.058;2024-03-07T16:12:43;6.70;14.70
326;DHT22;150;52.352;14.058;2024-03-07T16:15:10;6.60;14.60
326;DHT22;150;52.352;14.058;2024-03-07T16:17:37;6.60;14.60
326;DHT22;150;52.352;14.058;2024-03-07T16:20:05;6.60;14.60
326;DHT22;150;52.352;14.058;2024-03-07T16:22:38;6.50;14.50
326;DHT22;150;52.352;14.058;2024-03-07T16:25:05;6.60;14.60
326;DHT22;150;52.352;14.058;2024-03-07T16:27:33;6.50;14.50
326;DHT22;150;52.352;14.058;2024-03-07T16:30:00;6.50;14.90
326;DHT22;150;52.352;14.058;2024-03-07T16:32:35;6.50;15.20
326;DHT22;150;52.352;14.058;2024-03-07T16:35:02;6.40;15.10
326;DHT22;150;52.352;14.058;2024-03-07T16:37:34;6.40;15.30
326;DHT22;150;52.352;14.058;2024-03-07T16:40:04;6.20;15.70
326;DHT22;150;52.352;14.058;2024-03-07T16:42:32;6.20;15.80
326;DHT22;150;52.352;14.058;2024-03-07T16:44:59;6.20;15.80
326;DHT22;150;52.352;14.058;2024-03-07T16:47:27;6.10;16.00
326;DHT22;150;52.352;14.058;2024-03-07T16:49:54;6.10;16.50